createdAt,value
2023-02-01T00:00:30.854Z,0
2023-02-01T00:02:36.436Z,0
2023-02-01T00:04:43.879Z,0
2023-02-01T00:06:50.754Z,0
2023-02-01T00:07:54.142Z,0
2023-02-01T00:10:00.735Z,0
2023-02-01T00:12:07.619Z,0
2023-02-01T00:14:14.286Z,0
2023-02-01T00:15:18.034Z,0
2023-02-01T00:17:25.453Z,0
2023-02-01T00:19:31.392Z,0
2023-02-01T00:21:38.831Z,0
2023-02-01T00:22:41.948Z,0
2023-02-01T00:24:47.600Z,0
2023-02-01T00:26:54.883Z,0
2023-02-01T00:29:00.977Z,0
2023-02-01T00:30:04.091Z,0
2023-02-01T00:32:11.672Z,0
2023-02-01T00:34:18.102Z,0
2023-02-01T00:36:24.931Z,0
2023-02-01T00:37:27.276Z,0
2023-02-01T00:39:34.262Z,0
2023-02-01T00:41:40.509Z,0
2023-02-01T00:43:46.325Z,0
2023-02-01T00:44:48.740Z,0
2023-02-01T00:46:55.505Z,0
2023-02-01T00:49:01.589Z,0
2023-02-01T00:51:07.880Z,0
2023-02-01T00:52:10.965Z,0
2023-02-01T00:54:17.797Z,0
2023-02-01T00:56:23.322Z,0
2023-02-01T00:58:30.368Z,0
2023-02-01T00:59:33.410Z,0
2023-02-01T01:00:37.295Z,0
2023-02-01T01:01:40.836Z,0
2023-02-01T01:03:46.607Z,0
2023-02-01T01:05:52.912Z,0
2023-02-01T01:06:56.594Z,0
2023-02-01T01:07:59.719Z,0
2023-02-01T01:09:03.481Z,0
2023-02-01T01:11:09.824Z,0
2023-02-01T01:12:12.938Z,0
2023-02-01T01:13:15.733Z,0
2023-02-01T01:14:19.016Z,0
2023-02-01T01:16:25.646Z,0
2023-02-01T01:18:31.587Z,0
2023-02-01T01:19:34.958Z,0
2023-02-01T01:21:41.447Z,0
2023-02-01T01:23:47.377Z,0
2023-02-01T01:25:53.912Z,0
2023-02-01T01:26:57.234Z,0
2023-02-01T01:29:02.827Z,0
2023-02-01T01:31:08.996Z,0
2023-02-01T01:33:15.188Z,0
2023-02-01T01:34:17.918Z,0
2023-02-01T01:36:24.470Z,0
2023-02-01T01:38:31.974Z,0
2023-02-01T01:40:38.461Z,0
2023-02-01T01:41:41.857Z,0
2023-02-01T01:43:47.704Z,0
2023-02-01T01:44:51.069Z,0
2023-02-01T01:46:57.703Z,0
2023-02-01T01:49:04.813Z,0
2023-02-01T01:51:10.995Z,0
2023-02-01T01:52:13.449Z,0
2023-02-01T01:54:19.531Z,0
2023-02-01T01:56:25.595Z,0
2023-02-01T01:57:28.657Z,0
2023-02-01T01:59:33.643Z,0
2023-02-01T02:01:40.841Z,0
2023-02-01T02:03:46.933Z,0
2023-02-01T02:04:50.580Z,0
2023-02-01T02:06:57.574Z,0
2023-02-01T02:08:01.098Z,0
2023-02-01T02:09:08.429Z,0
2023-02-01T02:11:14.873Z,0
2023-02-01T02:12:18.559Z,0
2023-02-01T02:14:25.464Z,0
2023-02-01T02:16:31.726Z,0
2023-02-01T02:17:35.492Z,0
2023-02-01T02:18:39.496Z,0
2023-02-01T02:19:42.923Z,0
2023-02-01T02:21:48.045Z,0
2023-02-01T02:22:51.151Z,0
2023-02-01T02:24:57.056Z,0
2023-02-01T02:27:03.482Z,0
2023-02-01T02:28:07.192Z,0
2023-02-01T02:30:13.648Z,0
2023-02-01T02:31:18.066Z,0
2023-02-01T02:33:22.962Z,0
2023-02-01T02:35:28.401Z,0
2023-02-01T02:36:32.033Z,0
2023-02-01T02:38:37.994Z,0
2023-02-01T02:39:41.003Z,0
2023-02-01T02:41:47.577Z,0
2023-02-01T02:43:54.156Z,0
2023-02-01T02:44:57.634Z,0
2023-02-01T02:47:05.475Z,0
2023-02-01T02:49:11.861Z,0
2023-02-01T02:50:14.956Z,0
2023-02-01T02:52:21.099Z,0
2023-02-01T02:54:27.200Z,0
2023-02-01T02:55:30.047Z,0
2023-02-01T02:56:33.431Z,0
2023-02-01T02:57:36.548Z,0
2023-02-01T02:59:43.477Z,0
2023-02-01T03:00:47.358Z,0
2023-02-01T03:01:50.139Z,0
2023-02-01T03:02:53.567Z,0
2023-02-01T03:04:59.923Z,0
2023-02-01T03:06:02.954Z,0
2023-02-01T03:08:09.717Z,0
2023-02-01T03:10:15.898Z,0
2023-02-01T03:12:21.812Z,0
2023-02-01T03:13:24.924Z,0
2023-02-01T03:15:30.692Z,0
2023-02-01T03:17:38.195Z,0
2023-02-01T03:18:40.963Z,0
2023-02-01T03:20:47.184Z,0
2023-02-01T03:21:50.643Z,0
2023-02-01T03:22:53.967Z,0
2023-02-01T03:23:57.428Z,0
2023-02-01T03:26:03.393Z,0
2023-02-01T03:28:09.750Z,0
2023-02-01T03:29:14.419Z,0
2023-02-01T03:31:21.578Z,0
2023-02-01T03:33:27.832Z,0
2023-02-01T03:35:33.649Z,0
2023-02-01T03:36:36.364Z,0
2023-02-01T03:38:43.133Z,0
2023-02-01T03:40:48.979Z,0
2023-02-01T03:41:52.009Z,0
2023-02-01T03:43:57.412Z,0
2023-02-01T03:46:03.815Z,0
2023-02-01T03:47:07.266Z,0
2023-02-01T03:49:13.051Z,0
2023-02-01T03:51:19.518Z,0
2023-02-01T03:52:22.867Z,0
2023-02-01T03:54:29.275Z,0
2023-02-01T03:56:35.418Z,0
2023-02-01T03:58:41.034Z,0
2023-02-01T03:59:44.430Z,0
2023-02-01T04:01:50.370Z,0
2023-02-01T04:03:57.615Z,0
2023-02-01T04:05:01.011Z,0
2023-02-01T04:06:04.176Z,0
2023-02-01T04:07:07.187Z,0
2023-02-01T04:09:13.027Z,0
2023-02-01T04:11:23.406Z,0
2023-02-01T04:12:26.696Z,0
2023-02-01T04:14:33.106Z,0
2023-02-01T04:16:41.168Z,0
2023-02-01T04:18:48.055Z,0
2023-02-01T04:19:51.235Z,0
2023-02-01T04:21:57.338Z,0
2023-02-01T04:23:00.681Z,0
2023-02-01T04:24:03.892Z,0
2023-02-01T04:26:10.881Z,0
2023-02-01T04:27:14.660Z,0
2023-02-01T04:28:17.386Z,0
2023-02-01T04:29:20.820Z,0
2023-02-01T04:31:30.731Z,0
2023-02-01T04:33:37.502Z,0
2023-02-01T04:34:40.995Z,0
2023-02-01T04:36:48.926Z,0
2023-02-01T04:38:55.661Z,0
2023-02-01T04:41:01.557Z,0
2023-02-01T04:42:04.915Z,0
2023-02-01T04:43:06.884Z,0
2023-02-01T04:44:09.937Z,0
2023-02-01T04:46:17.057Z,0
2023-02-01T04:48:27.045Z,0
2023-02-01T04:49:29.349Z,0
2023-02-01T04:50:32.530Z,0
2023-02-01T04:51:36.262Z,0
2023-02-01T04:53:41.830Z,0
2023-02-01T04:54:45.213Z,0
2023-02-01T04:55:48.317Z,0
2023-02-01T04:56:51.384Z,0
2023-02-01T04:58:57.542Z,0
2023-02-01T05:01:03.395Z,0
2023-02-01T05:02:05.848Z,0
2023-02-01T05:04:12.378Z,0
2023-02-01T05:06:19.322Z,0
2023-02-01T05:08:25.893Z,0
2023-02-01T05:09:29.272Z,0
2023-02-01T05:11:34.838Z,0
2023-02-01T05:13:41.185Z,0
2023-02-01T05:15:47.316Z,0
2023-02-01T05:16:50.180Z,0
2023-02-01T05:18:57.585Z,0
2023-02-01T05:21:03.842Z,0
2023-02-01T05:23:10.317Z,0
2023-02-01T05:24:13.503Z,0
2023-02-01T05:26:20.004Z,0
2023-02-01T05:28:25.934Z,0
2023-02-01T05:30:32.967Z,0
2023-02-01T05:31:37.492Z,0
2023-02-01T05:33:43.211Z,0
2023-02-01T05:35:50.129Z,0
2023-02-01T05:37:57.084Z,0
2023-02-01T05:39:00.576Z,0
2023-02-01T05:41:06.915Z,0
2023-02-01T05:43:13.071Z,0
2023-02-01T05:45:19.228Z,0
2023-02-01T05:46:22.800Z,0
2023-02-01T05:48:29.607Z,0
2023-02-01T05:50:34.880Z,0
2023-02-01T05:52:41.993Z,0
2023-02-01T05:53:46.026Z,0
2023-02-01T05:54:50.107Z,0
2023-02-01T05:55:53.023Z,0
2023-02-01T05:57:59.335Z,0
2023-02-01T05:59:02.428Z,0
2023-02-01T06:00:06.324Z,0
2023-02-01T06:01:09.776Z,0
2023-02-01T06:03:15.986Z,0
2023-02-01T06:05:22.532Z,0
2023-02-01T06:07:31.705Z,0
2023-02-01T06:08:34.489Z,0
2023-02-01T06:10:40.939Z,0
2023-02-01T06:12:47.168Z,0
2023-02-01T06:13:50.043Z,0
2023-02-01T06:15:56.406Z,0
2023-02-01T06:18:02.691Z,0
2023-02-01T06:20:11.956Z,0
2023-02-01T06:21:15.475Z,0
2023-02-01T06:22:19.115Z,0
2023-02-01T06:23:21.969Z,0
2023-02-01T06:25:28.257Z,0
2023-02-01T06:26:31.911Z,0
2023-02-01T06:27:35.301Z,0
2023-02-01T06:28:38.291Z,0
2023-02-01T06:30:44.518Z,0
2023-02-01T06:31:47.753Z,0
2023-02-01T06:32:51.090Z,0
2023-02-01T06:33:54.484Z,0
2023-02-01T06:36:01.620Z,0
2023-02-01T06:38:07.947Z,0
2023-02-01T06:40:14.670Z,0
2023-02-01T06:41:17.499Z,0
2023-02-01T06:43:23.830Z,0
2023-02-01T06:45:29.733Z,0
2023-02-01T06:47:36.567Z,0
2023-02-01T06:48:40.021Z,0
2023-02-01T06:50:45.272Z,0
2023-02-01T06:52:52.162Z,0
2023-02-01T06:54:58.359Z,0
2023-02-01T06:56:02.124Z,0
2023-02-01T06:58:08.924Z,0
2023-02-01T07:00:16.086Z,0
2023-02-01T07:02:22.935Z,0
2023-02-01T07:03:25.772Z,0
2023-02-01T07:05:31.982Z,0
2023-02-01T07:07:38.828Z,0
2023-02-01T07:08:42.168Z,0
2023-02-01T07:09:45.845Z,0
2023-02-01T07:10:49.207Z,0
2023-02-01T07:12:55.761Z,1
2023-02-01T07:13:59.242Z,1
2023-02-01T07:15:02.529Z,1
2023-02-01T07:16:06.577Z,1
2023-02-01T07:18:12.659Z,3
2023-02-01T07:20:18.514Z,4
2023-02-01T07:21:21.989Z,6
2023-02-01T07:23:27.937Z,6
2023-02-01T07:25:34.184Z,5
2023-02-01T07:27:40.641Z,5
2023-02-01T07:28:44.136Z,5
2023-02-01T07:30:51.181Z,4
2023-02-01T07:32:58.248Z,4
2023-02-01T07:35:04.422Z,4
2023-02-01T07:36:07.816Z,6
2023-02-01T07:38:13.325Z,5
2023-02-01T07:40:20.247Z,6
2023-02-01T07:42:26.647Z,6
2023-02-01T07:43:30.201Z,6
2023-02-01T07:45:38.950Z,10
2023-02-01T07:47:45.473Z,12
2023-02-01T07:49:52.677Z,13
2023-02-01T07:50:56.397Z,14
2023-02-01T07:53:01.649Z,12
2023-02-01T07:55:07.969Z,13
2023-02-01T07:56:10.812Z,14
2023-02-01T07:58:17.219Z,9
2023-02-01T08:00:25.939Z,8
2023-02-01T08:02:33.935Z,8
2023-02-01T08:03:37.036Z,8
2023-02-01T08:05:42.533Z,10
2023-02-01T08:07:48.790Z,17
2023-02-01T08:08:52.512Z,18
2023-02-01T08:09:55.909Z,20
2023-02-01T08:10:58.996Z,21
2023-02-01T08:13:05.271Z,24
2023-02-01T08:15:11.611Z,26
2023-02-01T08:16:15.704Z,29
2023-02-01T08:18:22.051Z,44
2023-02-01T08:20:28.975Z,42
2023-02-01T08:22:34.927Z,34
2023-02-01T08:23:37.912Z,24
2023-02-01T08:25:44.230Z,24
2023-02-01T08:27:51.438Z,43
2023-02-01T08:28:55.257Z,32
2023-02-01T08:29:58.762Z,24
2023-02-01T08:31:01.963Z,24
2023-02-01T08:33:09.028Z,33
2023-02-01T08:35:16.148Z,28
2023-02-01T08:36:19.208Z,42
2023-02-01T08:38:25.832Z,64
2023-02-01T08:40:32.085Z,70
2023-02-01T08:42:39.805Z,122
2023-02-01T08:43:43.194Z,44
2023-02-01T08:45:50.925Z,36
2023-02-01T08:47:58.310Z,48
2023-02-01T08:50:04.289Z,33
2023-02-01T08:51:07.837Z,27
2023-02-01T08:52:18.466Z,31
2023-02-01T08:53:21.642Z,41
2023-02-01T08:55:28.828Z,25
2023-02-01T08:57:36.106Z,32
2023-02-01T08:58:39.509Z,32
2023-02-01T08:59:42.785Z,39
2023-02-01T09:00:46.204Z,45
2023-02-01T09:02:53.138Z,46
2023-02-01T09:03:57.159Z,46
2023-02-01T09:05:01.546Z,44
2023-02-01T09:06:04.953Z,39
2023-02-01T09:08:12.037Z,54
2023-02-01T09:10:38.828Z,47
2023-02-01T09:12:46.888Z,60
2023-02-01T09:13:50.621Z,58
2023-02-01T09:15:58.264Z,75
2023-02-01T09:18:05.017Z,117
2023-02-01T09:19:28.822Z,134
2023-02-01T09:20:32.576Z,210
2023-02-01T09:21:36.246Z,173
2023-02-01T09:23:43.280Z,47
2023-02-01T09:25:49.645Z,46
2023-02-01T09:27:56.268Z,39
2023-02-01T09:28:59.138Z,34
2023-02-01T09:31:07.032Z,32
2023-02-01T09:33:14.281Z,30
2023-02-01T09:35:20.449Z,30
2023-02-01T09:36:23.633Z,26
2023-02-01T09:37:27.013Z,20
2023-02-01T09:38:32.919Z,18
2023-02-01T09:40:39.436Z,26
2023-02-01T09:41:43.459Z,32
2023-02-01T09:43:49.325Z,170
2023-02-01T09:45:56.594Z,284
2023-02-01T09:46:59.889Z,520
2023-02-01T09:49:06.117Z,225
2023-02-01T09:51:13.022Z,88
2023-02-01T09:52:16.180Z,101
2023-02-01T09:54:22.911Z,108
2023-02-01T09:56:29.380Z,253
2023-02-01T09:57:33.093Z,179
2023-02-01T09:59:39.361Z,178
2023-02-01T10:01:46.990Z,96
2023-02-01T10:02:51.108Z,94
2023-02-01T10:04:58.628Z,97
2023-02-01T10:07:05.568Z,81
2023-02-01T10:08:09.009Z,94
2023-02-01T10:10:15.714Z,76
2023-02-01T10:11:18.829Z,60
2023-02-01T10:12:21.927Z,49
2023-02-01T10:13:25.198Z,82
2023-02-01T10:15:32.218Z,85
2023-02-01T10:16:36.960Z,76
2023-02-01T10:18:43.459Z,49
2023-02-01T10:20:50.739Z,86
2023-02-01T10:21:53.700Z,87
2023-02-01T10:23:36.509Z,93
2023-02-01T10:24:40.186Z,82
2023-02-01T10:26:47.543Z,124
2023-02-01T10:27:50.655Z,213
2023-02-01T10:28:54.331Z,310
2023-02-01T10:29:58.010Z,744
2023-02-01T10:32:05.970Z,752
2023-02-01T10:33:08.726Z,780
2023-02-01T10:34:11.793Z,795
2023-02-01T10:35:14.897Z,763
2023-02-01T10:37:21.684Z,775
2023-02-01T10:38:24.774Z,761
2023-02-01T10:40:31.737Z,781
2023-02-01T10:42:38.837Z,810
2023-02-01T10:43:41.982Z,807
2023-02-01T10:44:45.687Z,824
2023-02-01T10:45:49.072Z,697
2023-02-01T10:47:56.257Z,836
2023-02-01T10:48:59.627Z,834
2023-02-01T10:50:03.022Z,823
2023-02-01T10:51:06.474Z,780
2023-02-01T10:52:09.235Z,484
2023-02-01T10:53:13.217Z,726
2023-02-01T10:54:17.040Z,720
2023-02-01T10:56:24.118Z,548
2023-02-01T10:58:30.468Z,492
2023-02-01T10:59:33.796Z,478
2023-02-01T11:01:39.389Z,642
2023-02-01T11:03:46.722Z,533
2023-02-01T11:04:49.830Z,181
2023-02-01T11:06:55.929Z,201
2023-02-01T11:09:03.264Z,399
2023-02-01T11:11:09.709Z,593
2023-02-01T11:12:12.593Z,125
2023-02-01T11:14:18.767Z,45
2023-02-01T11:16:27.565Z,38
2023-02-01T11:17:30.971Z,29
2023-02-01T11:19:37.437Z,29
2023-02-01T11:21:43.594Z,41
2023-02-01T11:22:47.305Z,48
2023-02-01T11:24:53.975Z,32
2023-02-01T11:27:02.175Z,30
2023-02-01T11:29:09.109Z,89
2023-02-01T11:30:11.950Z,93
2023-02-01T11:32:20.573Z,116
2023-02-01T11:34:27.058Z,90
2023-02-01T11:35:30.599Z,80
2023-02-01T11:36:33.511Z,89
2023-02-01T11:37:37.008Z,102
2023-02-01T11:39:43.241Z,123
2023-02-01T11:40:46.639Z,123
2023-02-01T11:44:47.303Z,115
2023-02-01T11:45:51.003Z,97
2023-02-01T11:46:54.145Z,84
2023-02-01T11:48:59.949Z,80
2023-02-01T11:51:09.183Z,60
2023-02-01T11:52:12.930Z,54
2023-02-01T11:54:19.647Z,36
2023-02-01T11:56:27.054Z,24
2023-02-01T11:57:30.447Z,20
2023-02-01T11:59:57.979Z,9
2023-02-01T12:02:05.302Z,10
2023-02-01T12:03:08.524Z,12
2023-02-01T12:05:15.417Z,14
2023-02-01T12:07:22.919Z,16
2023-02-01T12:08:26.654Z,14
2023-02-01T12:09:29.760Z,13
2023-02-01T12:10:33.138Z,10
2023-02-01T12:11:37.186Z,7
2023-02-01T12:13:42.352Z,6
2023-02-01T12:14:45.717Z,5
2023-02-01T12:16:52.862Z,6
2023-02-01T12:18:58.755Z,5
2023-02-01T12:20:02.404Z,5
2023-02-01T12:22:09.234Z,5
2023-02-01T12:23:12.873Z,6
2023-02-01T12:25:19.407Z,6
2023-02-01T12:27:27.125Z,10
2023-02-01T12:28:30.507Z,9
2023-02-01T12:30:36.742Z,14
2023-02-01T12:32:44.540Z,21
2023-02-01T12:33:47.507Z,18
2023-02-01T12:35:53.960Z,18
2023-02-01T12:38:01.623Z,18
2023-02-01T12:39:05.043Z,27
2023-02-01T12:41:11.320Z,26
2023-02-01T12:43:18.526Z,16
2023-02-01T12:44:21.904Z,15
2023-02-01T12:46:28.250Z,9
2023-02-01T12:48:34.998Z,13
2023-02-01T12:49:38.357Z,21
2023-02-01T12:51:44.775Z,21
2023-02-01T12:52:48.155Z,15
2023-02-01T12:53:51.943Z,9
2023-02-01T12:54:55.564Z,12
2023-02-01T12:57:02.443Z,17
2023-02-01T12:58:05.247Z,22
2023-02-01T13:00:11.520Z,27
2023-02-01T13:02:18.720Z,23
2023-02-01T13:03:22.129Z,29
2023-02-01T13:05:28.992Z,22
2023-02-01T13:06:32.103Z,18
2023-02-01T13:07:35.540Z,21
2023-02-01T13:08:39.279Z,22
2023-02-01T13:10:46.091Z,25
2023-02-01T13:11:49.203Z,26
2023-02-01T13:12:52.722Z,20
2023-02-01T13:13:56.816Z,17
2023-02-01T13:15:00.299Z,14
2023-02-01T13:17:07.101Z,16
2023-02-01T13:19:13.341Z,23
2023-02-01T13:20:16.797Z,29
2023-02-01T13:21:20.089Z,28
2023-02-01T13:22:23.767Z,28
2023-02-01T13:24:30.752Z,21
2023-02-01T13:25:34.576Z,17
2023-02-01T13:27:41.628Z,9
2023-02-01T13:29:48.139Z,6
2023-02-01T13:30:52.899Z,8
2023-02-01T13:33:59.196Z,7
2023-02-01T13:35:03.502Z,7
2023-02-01T13:36:06.664Z,8
2023-02-01T13:38:13.936Z,6
2023-02-01T13:39:17.625Z,6
2023-02-01T13:41:24.506Z,6
2023-02-01T13:43:31.307Z,7
2023-02-01T13:44:35.140Z,6
2023-02-01T13:46:42.241Z,7
2023-02-01T13:48:48.617Z,7
2023-02-01T13:49:51.892Z,8
2023-02-01T13:51:57.481Z,15
2023-02-01T13:53:00.429Z,18
2023-02-01T13:55:07.283Z,19
2023-02-01T13:57:13.638Z,18
2023-02-01T13:58:15.824Z,19
2023-02-01T14:00:22.854Z,18
2023-02-01T14:02:31.275Z,13
2023-02-01T14:03:35.285Z,13
2023-02-01T14:05:42.216Z,11
2023-02-01T14:07:49.313Z,16
2023-02-01T14:08:52.581Z,20
2023-02-01T14:10:59.959Z,23
2023-02-01T14:13:07.355Z,23
2023-02-01T14:14:10.426Z,24
2023-02-01T14:15:13.819Z,23
2023-02-01T14:16:18.111Z,18
2023-02-01T14:18:24.812Z,18
2023-02-01T14:19:27.851Z,21
2023-02-01T14:21:35.809Z,26
2023-02-01T14:23:42.234Z,20
2023-02-01T14:24:45.568Z,23
2023-02-01T14:26:52.781Z,19
2023-02-01T14:28:58.427Z,14
2023-02-01T14:31:05.029Z,13
2023-02-01T14:32:08.433Z,16
2023-02-01T14:34:15.323Z,19
2023-02-01T14:35:18.419Z,18
2023-02-01T14:36:21.747Z,23
2023-02-01T14:37:25.575Z,24
2023-02-01T14:39:33.077Z,30
2023-02-01T14:40:36.847Z,30
2023-02-01T14:41:44.626Z,28
2023-02-01T14:42:48.097Z,26
2023-02-01T14:45:02.027Z,27
2023-02-01T14:46:05.684Z,30
2023-02-01T14:47:08.876Z,31
2023-02-01T14:49:15.385Z,35
2023-02-01T14:50:19.481Z,35
2023-02-01T14:52:25.663Z,37
2023-02-01T14:54:31.264Z,28
2023-02-01T14:55:34.694Z,26
2023-02-01T14:57:40.044Z,25
2023-02-01T14:59:46.764Z,23
2023-02-01T15:00:50.323Z,18
2023-02-01T15:01:54.158Z,16
2023-02-01T15:02:57.912Z,16
2023-02-01T15:05:05.497Z,10
2023-02-01T15:06:09.279Z,10
2023-02-01T15:08:15.929Z,11
2023-02-01T15:10:22.364Z,6
2023-02-01T15:12:28.631Z,9
2023-02-01T15:13:31.965Z,8
2023-02-01T15:15:38.625Z,5
2023-02-01T15:17:45.031Z,5
2023-02-01T15:18:48.797Z,5
2023-02-01T15:19:51.903Z,5
2023-02-01T15:21:35.098Z,5
2023-02-01T15:22:38.836Z,5
2023-02-01T15:23:41.601Z,5
2023-02-01T15:25:47.412Z,7
2023-02-01T15:27:55.166Z,8
2023-02-01T15:28:58.456Z,8
2023-02-01T15:31:05.967Z,7
2023-02-01T15:33:14.548Z,6
2023-02-01T15:35:20.480Z,7
2023-02-01T15:36:23.350Z,7
2023-02-01T15:38:30.501Z,7
2023-02-01T15:40:39.234Z,7
2023-02-01T15:41:42.851Z,6
2023-02-01T15:43:49.099Z,6
2023-02-01T15:45:55.605Z,5
2023-02-01T15:46:59.301Z,5
2023-02-01T15:49:06.255Z,3
2023-02-01T15:51:12.452Z,3
2023-02-01T15:52:16.115Z,3
2023-02-01T15:54:23.097Z,2
2023-02-01T15:56:31.014Z,2
2023-02-01T15:58:37.847Z,1
2023-02-01T15:59:40.931Z,1
2023-02-01T16:01:47.355Z,1
2023-02-01T16:02:51.537Z,0
2023-02-01T16:04:59.124Z,0
2023-02-01T16:07:05.822Z,0
2023-02-01T16:08:09.173Z,0
2023-02-01T16:10:16.417Z,0
2023-02-01T16:12:23.038Z,0
2023-02-01T16:14:29.871Z,0
2023-02-01T16:15:32.581Z,0
2023-02-01T16:17:39.415Z,0
2023-02-01T16:19:46.297Z,0
2023-02-01T16:21:52.484Z,0
2023-02-01T16:22:55.919Z,0
2023-02-01T16:25:02.614Z,0
2023-02-01T16:27:09.465Z,0
2023-02-01T16:29:15.885Z,0
2023-02-01T16:30:19.295Z,0
2023-02-01T16:32:27.215Z,0
2023-02-01T16:34:33.637Z,0
2023-02-01T16:36:44.124Z,0
2023-02-01T16:37:47.088Z,0
2023-02-01T16:39:53.448Z,0
2023-02-01T16:42:06.172Z,0
2023-02-01T16:43:10.172Z,0
2023-02-01T16:44:13.838Z,0
2023-02-01T16:45:17.203Z,0
2023-02-01T16:47:25.771Z,0
2023-02-01T16:49:32.246Z,0
2023-02-01T16:51:38.994Z,0
2023-02-01T16:52:43.866Z,0
2023-02-01T16:53:58.136Z,0
2023-02-01T16:55:01.598Z,0
2023-02-01T16:57:12.429Z,0
2023-02-01T16:59:18.310Z,0
2023-02-01T17:00:27.464Z,0
2023-02-01T17:01:31.232Z,0
2023-02-01T17:02:34.238Z,0
2023-02-01T17:04:41.404Z,0
2023-02-01T17:06:48.656Z,0
2023-02-01T17:08:55.119Z,0
2023-02-01T17:09:58.640Z,0
2023-02-01T17:12:04.680Z,0
2023-02-01T17:14:11.522Z,0
2023-02-01T17:15:15.171Z,0
2023-02-01T17:17:41.216Z,0
2023-02-01T17:18:44.435Z,0
2023-02-01T17:19:48.065Z,0
2023-02-01T17:21:54.505Z,0
2023-02-01T17:24:00.737Z,0
2023-02-01T17:25:04.117Z,0
2023-02-01T17:27:10.863Z,0
2023-02-01T17:29:17.652Z,0
2023-02-01T17:31:25.993Z,0
2023-02-01T17:32:31.422Z,0
2023-02-01T17:33:38.794Z,0
2023-02-01T17:34:44.988Z,0
2023-02-01T17:36:52.059Z,0
2023-02-01T17:39:08.462Z,0
2023-02-01T17:40:11.913Z,0
2023-02-01T17:42:18.216Z,0
2023-02-01T17:44:25.465Z,0
2023-02-01T17:45:29.172Z,0
2023-02-01T17:46:32.914Z,0
2023-02-01T17:47:36.931Z,0
2023-02-01T17:49:44.373Z,0
2023-02-01T17:50:48.422Z,0
2023-02-01T17:51:51.478Z,0
2023-02-01T17:52:54.474Z,0
2023-02-01T17:55:01.421Z,0
2023-02-01T17:57:07.633Z,0
2023-02-01T17:58:10.655Z,0
2023-02-01T18:00:17.559Z,0
2023-02-01T18:02:25.532Z,0
2023-02-01T18:04:32.999Z,0
2023-02-01T18:05:36.357Z,0
2023-02-01T18:07:44.356Z,0
2023-02-01T18:09:52.190Z,0
2023-02-01T18:10:55.378Z,0
2023-02-01T18:11:58.754Z,0
2023-02-01T18:13:02.185Z,0
2023-02-01T18:15:09.270Z,0
2023-02-01T18:16:12.330Z,0
2023-02-01T18:18:18.768Z,0
2023-02-01T18:20:25.613Z,0
2023-02-01T18:22:32.321Z,0
2023-02-01T18:23:35.330Z,0
2023-02-01T18:25:41.139Z,0
2023-02-01T18:27:47.825Z,0
2023-02-01T18:29:53.948Z,0
2023-02-01T18:30:58.123Z,0
2023-02-01T18:33:05.483Z,0
2023-02-01T18:35:11.999Z,0
2023-02-01T18:36:15.638Z,0
2023-02-01T18:38:21.674Z,0
2023-02-01T18:40:27.781Z,0
2023-02-01T18:42:34.193Z,0
2023-02-01T18:43:37.422Z,0
2023-02-01T18:45:43.373Z,0
2023-02-01T18:47:49.826Z,0
2023-02-01T18:49:56.562Z,0
2023-02-01T18:50:58.924Z,0
2023-02-01T18:53:05.704Z,0
2023-02-01T18:55:11.676Z,0
2023-02-01T18:57:18.120Z,0
2023-02-01T18:58:21.233Z,0
2023-02-01T19:00:28.169Z,0
2023-02-01T19:02:36.102Z,0
2023-02-01T19:04:27.558Z,0
2023-02-01T19:05:31.230Z,0
2023-02-01T19:07:37.438Z,0
2023-02-01T19:09:44.888Z,0
2023-02-01T19:10:47.712Z,0
2023-02-01T19:12:54.565Z,0
2023-02-01T19:15:01.047Z,0
2023-02-01T19:16:05.156Z,0
2023-02-01T19:17:08.620Z,0
2023-02-01T19:18:11.705Z,0
2023-02-01T19:20:19.016Z,0
2023-02-01T19:21:22.102Z,0
2023-02-01T19:22:25.455Z,0
2023-02-01T19:23:28.549Z,0
2023-02-01T19:25:35.761Z,0
2023-02-01T19:27:42.745Z,0
2023-02-01T19:28:46.502Z,0
2023-02-01T19:30:53.858Z,0
2023-02-01T19:33:00.816Z,0
2023-02-01T19:35:08.353Z,0
2023-02-01T19:36:12.073Z,0
2023-02-01T19:38:18.946Z,0
2023-02-01T19:40:25.398Z,0
2023-02-01T19:42:31.932Z,0
2023-02-01T19:43:35.332Z,0
2023-02-01T19:45:41.962Z,0
2023-02-01T19:47:49.437Z,0
2023-02-01T19:49:56.703Z,0
2023-02-01T19:50:59.550Z,0
2023-02-01T19:52:02.961Z,0
2023-02-01T19:53:05.980Z,0
2023-02-01T19:55:13.195Z,0
2023-02-01T19:56:15.927Z,0
2023-02-01T19:57:19.592Z,0
2023-02-01T19:58:23.055Z,0
2023-02-01T20:00:28.766Z,0
2023-02-01T20:02:36.411Z,0
2023-02-01T20:03:39.744Z,0
2023-02-01T20:05:46.810Z,0
2023-02-01T20:07:52.577Z,0
2023-02-01T20:09:59.743Z,0
2023-02-01T20:11:02.572Z,0
2023-02-01T20:13:08.160Z,0
2023-02-01T20:15:14.848Z,0
2023-02-01T20:17:21.926Z,0
2023-02-01T20:18:25.715Z,0
2023-02-01T20:20:31.942Z,0
2023-02-01T20:22:38.411Z,0
2023-02-01T20:24:43.912Z,0
2023-02-01T20:25:48.509Z,0
2023-02-01T20:27:55.031Z,0
2023-02-01T20:30:01.821Z,0
2023-02-01T20:32:09.208Z,0
2023-02-01T20:33:12.211Z,0
2023-02-01T20:35:18.885Z,0
2023-02-01T20:37:25.594Z,0
2023-02-01T20:39:32.281Z,0
2023-02-01T20:40:35.265Z,0
2023-02-01T20:42:41.252Z,0
2023-02-01T20:44:46.950Z,0
2023-02-01T20:46:52.795Z,0
2023-02-01T20:47:55.865Z,0
2023-02-01T20:50:02.130Z,0
2023-02-01T20:52:07.794Z,0
2023-02-01T20:53:28.706Z,0
2023-02-01T20:54:32.374Z,0
2023-02-01T20:56:39.606Z,0
2023-02-01T20:57:43.619Z,0
2023-02-01T20:59:50.041Z,0
2023-02-01T21:01:56.930Z,0
2023-02-01T21:04:03.202Z,0
2023-02-01T21:05:06.661Z,0
2023-02-01T21:07:12.877Z,0
2023-02-01T21:09:18.949Z,0
2023-02-01T21:11:25.024Z,0
2023-02-01T21:12:28.391Z,0
2023-02-01T21:14:35.838Z,0
2023-02-01T21:16:42.474Z,0
2023-02-01T21:18:49.067Z,0
2023-02-01T21:19:52.445Z,0
2023-02-01T21:20:55.886Z,0
2023-02-01T21:21:59.566Z,0
2023-02-01T21:24:06.729Z,0
2023-02-01T21:25:09.846Z,0
2023-02-01T21:26:13.147Z,0
2023-02-01T21:27:16.872Z,0
2023-02-01T21:29:22.545Z,0
2023-02-01T21:30:25.525Z,0
2023-02-01T21:31:28.558Z,0
2023-02-01T21:32:31.611Z,0
2023-02-01T21:34:38.124Z,0
2023-02-01T21:35:40.629Z,0
2023-02-01T21:36:44.046Z,0
2023-02-01T21:37:47.375Z,0
2023-02-01T21:39:53.836Z,0
2023-02-01T21:42:00.643Z,0
2023-02-01T21:43:04.273Z,0
2023-02-01T21:45:12.005Z,0
2023-02-01T21:47:24.053Z,0
2023-02-01T21:49:08.578Z,0
2023-02-01T21:50:13.779Z,0
2023-02-01T21:52:19.894Z,0
2023-02-01T21:54:25.775Z,0
2023-02-01T21:55:29.223Z,0
2023-02-01T21:57:35.721Z,0
2023-02-01T21:59:43.813Z,0
2023-02-01T22:01:50.948Z,0
2023-02-01T22:02:54.049Z,0
2023-02-01T22:03:56.861Z,0
2023-02-01T22:05:00.222Z,0
2023-02-01T22:07:06.445Z,0
2023-02-01T22:08:10.121Z,0
2023-02-01T22:09:13.724Z,0
2023-02-01T22:10:17.089Z,0
2023-02-01T22:12:23.786Z,0
2023-02-01T22:13:27.795Z,0
2023-02-01T22:14:31.446Z,0
2023-02-01T22:15:34.338Z,0
2023-02-01T22:17:40.916Z,0
2023-02-01T22:18:44.921Z,0
2023-02-01T22:19:47.649Z,0
2023-02-01T22:20:51.272Z,0
2023-02-01T22:22:58.833Z,0
2023-02-01T22:25:07.994Z,0
2023-02-01T22:26:10.949Z,0
2023-02-01T22:28:35.559Z,0
2023-02-01T22:30:45.173Z,0
2023-02-01T22:32:53.311Z,0
2023-02-01T22:34:58.880Z,0
2023-02-01T22:36:02.924Z,0
2023-02-01T22:38:08.843Z,0
2023-02-01T22:40:13.971Z,0
2023-02-01T22:42:20.189Z,0
2023-02-01T22:43:23.473Z,0
2023-02-01T22:45:30.550Z,0
2023-02-01T22:47:36.440Z,0
2023-02-01T22:48:39.432Z,0
2023-02-01T22:50:46.241Z,0
2023-02-01T22:52:52.772Z,0
2023-02-01T22:55:00.372Z,0
2023-02-01T22:56:03.940Z,0
2023-02-01T22:58:13.082Z,0
2023-02-01T23:00:19.759Z,0
2023-02-01T23:02:25.083Z,0
2023-02-01T23:03:29.093Z,0
2023-02-01T23:05:35.927Z,0
2023-02-01T23:07:42.108Z,0
2023-02-01T23:09:48.577Z,0
2023-02-01T23:10:52.025Z,0
2023-02-01T23:12:57.989Z,0
2023-02-01T23:15:04.769Z,0
2023-02-01T23:16:07.931Z,0
2023-02-01T23:17:10.844Z,0
2023-02-01T23:18:14.260Z,0
2023-02-01T23:20:19.584Z,0
2023-02-01T23:21:22.990Z,0
2023-02-01T23:22:25.880Z,0
2023-02-01T23:23:29.847Z,0
2023-02-01T23:25:35.745Z,0
2023-02-01T23:27:42.780Z,0
2023-02-01T23:28:46.174Z,0
2023-02-01T23:30:54.054Z,0
2023-02-01T23:33:00.915Z,0
2023-02-01T23:35:07.338Z,0
2023-02-01T23:36:11.568Z,0
2023-02-01T23:38:18.166Z,0
2023-02-01T23:40:24.226Z,0
2023-02-01T23:42:31.340Z,0
2023-02-01T23:43:34.420Z,0
2023-02-01T23:45:41.630Z,0
2023-02-01T23:47:48.467Z,0
2023-02-01T23:49:55.536Z,0
2023-02-01T23:50:58.977Z,0
2023-02-01T23:53:04.567Z,0
2023-02-01T23:55:10.816Z,0
2023-02-01T23:56:14.374Z,0
2023-02-01T23:57:17.388Z,0
2023-02-01T23:58:21.461Z,0
